sensor_id;sensor_type;location;lat;lon;timestamp;P1;durP1;ratioP1;P2;durP2;ratioP2
24635;SDS011;12772;49.794;10.024;2022-09-19T00:01:15;0.80;;;0.80;;
24635;SDS011;12772;49.794;10.024;2022-09-19T00:05:19;0.80;;;0.80;;
24635;SDS011;12772;49.794;10.024;2022-09-19T00:09:22;0.90;;;0.90;;
24635;SDS011;12772;49.794;10.024;2022-09-19T00:13:25;0.70;;;0.70;;
24635;SDS011;12772;49.794;10.024;2022-09-19T00:17:28;1.10;;;1.00;;
24635;SDS011;12772;49.794;10.024;2022-09-19T00:21:34;0.80;;;0.80;;
24635;SDS011;12772;49.794;10.024;2022-09-19T00:25:38;0.82;;;0.82;;
24635;SDS011;12772;49.794;10.024;2022-09-19T00:29:39;0.90;;;0.90;;
24635;SDS011;12772;49.794;10.024;2022-09-19T00:33:42;2.47;;;1.02;;
24635;SDS011;12772;49.794;10.024;2022-09-19T00:37:46;1.55;;;0.95;;
24635;SDS011;12772;49.794;10.024;2022-09-19T00:41:48;0.90;;;0.90;;
24635;SDS011;12772;49.794;10.024;2022-09-19T00:45:51;1.13;;;1.13;;
24635;SDS011;12772;49.794;10.024;2022-09-19T00:49:54;0.80;;;0.80;;
24635;SDS011;12772;49.794;10.024;2022-09-19T00:54:08;0.90;;;0.90;;
24635;SDS011;12772;49.794;10.024;2022-09-19T00:58:15;1.40;;;1.30;;
24635;SDS011;12772;49.794;10.024;2022-09-19T01:02:23;2.58;;;1.30;;
24635;SDS011;12772;49.794;10.024;2022-09-19T01:11:00;1.15;;;1.00;;
24635;SDS011;12772;49.794;10.024;2022-09-19T01:19:47;2.30;;;1.35;;
24635;SDS011;12772;49.794;10.024;2022-09-19T01:23:58;1.52;;;1.42;;
24635;SDS011;12772;49.794;10.024;2022-09-19T01:28:21;1.92;;;1.15;;
24635;SDS011;12772;49.794;10.024;2022-09-19T01:32:32;1.92;;;1.00;;
24635;SDS011;12772;49.794;10.024;2022-09-19T01:36:44;2.47;;;1.25;;
24635;SDS011;12772;49.794;10.024;2022-09-19T01:40:49;1.38;;;1.17;;
24635;SDS011;12772;49.794;10.024;2022-09-19T01:44:54;1.30;;;1.20;;
24635;SDS011;12772;49.794;10.024;2022-09-19T01:49:00;2.25;;;1.70;;
24635;SDS011;12772;49.794;10.024;2022-09-19T01:57:43;1.67;;;1.40;;
24635;SDS011;12772;49.794;10.024;2022-09-19T02:02:12;3.80;;;1.60;;
24635;SDS011;12772;49.794;10.024;2022-09-19T02:06:30;1.85;;;1.63;;
24635;SDS011;12772;49.794;10.024;2022-09-19T02:10:56;1.90;;;1.77;;
24635;SDS011;12772;49.794;10.024;2022-09-19T02:15:05;2.80;;;2.00;;
24635;SDS011;12772;49.794;10.024;2022-09-19T02:19:14;3.70;;;1.80;;
24635;SDS011;12772;49.794;10.024;2022-09-19T02:23:31;2.10;;;1.85;;
24635;SDS011;12772;49.794;10.024;2022-09-19T02:27:44;1.60;;;1.48;;
24635;SDS011;12772;49.794;10.024;2022-09-19T02:31:51;3.33;;;1.88;;
24635;SDS011;12772;49.794;10.024;2022-09-19T02:36:14;2.58;;;1.77;;
24635;SDS011;12772;49.794;10.024;2022-09-19T02:40:34;3.83;;;1.83;;
24635;SDS011;12772;49.794;10.024;2022-09-19T02:44:47;3.42;;;2.15;;
24635;SDS011;12772;49.794;10.024;2022-09-19T02:48:54;2.58;;;1.95;;
24635;SDS011;12772;49.794;10.024;2022-09-19T02:53:08;2.17;;;1.95;;
24635;SDS011;12772;49.794;10.024;2022-09-19T02:57:14;4.03;;;1.90;;
24635;SDS011;12772;49.794;10.024;2022-09-19T03:01:20;4.65;;;1.88;;
24635;SDS011;12772;49.794;10.024;2022-09-19T03:05:26;5.38;;;2.60;;
24635;SDS011;12772;49.794;10.024;2022-09-19T03:09:30;5.35;;;2.13;;
24635;SDS011;12772;49.794;10.024;2022-09-19T03:13:33;3.60;;;1.75;;
24635;SDS011;12772;49.794;10.024;2022-09-19T03:17:41;4.45;;;2.17;;
24635;SDS011;12772;49.794;10.024;2022-09-19T03:21:53;7.65;;;2.55;;
24635;SDS011;12772;49.794;10.024;2022-09-19T03:25:56;4.63;;;2.33;;
24635;SDS011;12772;49.794;10.024;2022-09-19T03:29:58;2.35;;;2.00;;
24635;SDS011;12772;49.794;10.024;2022-09-19T03:34:00;2.80;;;1.95;;
24635;SDS011;12772;49.794;10.024;2022-09-19T03:38:03;3.97;;;1.65;;
24635;SDS011;12772;49.794;10.024;2022-09-19T03:42:05;3.70;;;2.13;;
24635;SDS011;12772;49.794;10.024;2022-09-19T03:46:08;4.70;;;2.08;;
24635;SDS011;12772;49.794;10.024;2022-09-19T03:50:12;2.92;;;2.22;;
24635;SDS011;12772;49.794;10.024;2022-09-19T03:54:14;3.47;;;2.08;;
24635;SDS011;12772;49.794;10.024;2022-09-19T03:58:16;4.43;;;2.22;;
24635;SDS011;12772;49.794;10.024;2022-09-19T04:02:18;6.18;;;2.40;;
24635;SDS011;12772;49.794;10.024;2022-09-19T04:06:20;4.13;;;2.45;;
24635;SDS011;12772;49.794;10.024;2022-09-19T04:10:22;3.80;;;2.28;;
24635;SDS011;12772;49.794;10.024;2022-09-19T04:14:24;4.10;;;2.42;;
24635;SDS011;12772;49.794;10.024;2022-09-19T04:18:26;4.03;;;2.65;;
24635;SDS011;12772;49.794;10.024;2022-09-19T04:22:29;6.10;;;3.08;;
24635;SDS011;12772;49.794;10.024;2022-09-19T04:26:31;5.20;;;2.22;;
24635;SDS011;12772;49.794;10.024;2022-09-19T04:30:34;5.07;;;2.60;;
24635;SDS011;12772;49.794;10.024;2022-09-19T04:34:37;3.95;;;2.40;;
24635;SDS011;12772;49.794;10.024;2022-09-19T04:38:43;3.95;;;2.60;;
24635;SDS011;12772;49.794;10.024;2022-09-19T04:42:46;5.50;;;3.20;;
24635;SDS011;12772;49.794;10.024;2022-09-19T04:46:48;7.55;;;3.55;;
24635;SDS011;12772;49.794;10.024;2022-09-19T04:50:51;3.92;;;2.75;;
24635;SDS011;12772;49.794;10.024;2022-09-19T04:54:53;7.90;;;3.10;;
24635;SDS011;12772;49.794;10.024;2022-09-19T04:58:56;4.10;;;3.00;;
24635;SDS011;12772;49.794;10.024;2022-09-19T05:02:59;6.15;;;2.65;;
24635;SDS011;12772;49.794;10.024;2022-09-19T05:07:01;6.53;;;3.05;;
24635;SDS011;12772;49.794;10.024;2022-09-19T05:11:04;6.18;;;2.60;;
24635;SDS011;12772;49.794;10.024;2022-09-19T05:15:08;4.32;;;2.50;;
24635;SDS011;12772;49.794;10.024;2022-09-19T05:19:10;7.45;;;3.58;;
24635;SDS011;12772;49.794;10.024;2022-09-19T05:23:13;3.65;;;3.13;;
24635;SDS011;12772;49.794;10.024;2022-09-19T05:27:15;8.50;;;3.75;;
24635;SDS011;12772;49.794;10.024;2022-09-19T05:31:19;6.88;;;3.28;;
24635;SDS011;12772;49.794;10.024;2022-09-19T05:35:21;7.30;;;3.75;;
24635;SDS011;12772;49.794;10.024;2022-09-19T05:39:23;4.90;;;3.15;;
24635;SDS011;12772;49.794;10.024;2022-09-19T05:43:25;6.72;;;4.03;;
24635;SDS011;12772;49.794;10.024;2022-09-19T05:47:28;5.55;;;3.58;;
24635;SDS011;12772;49.794;10.024;2022-09-19T05:51:30;6.10;;;3.58;;
24635;SDS011;12772;49.794;10.024;2022-09-19T05:55:32;7.75;;;3.47;;
24635;SDS011;12772;49.794;10.024;2022-09-19T05:59:35;6.45;;;3.88;;
24635;SDS011;12772;49.794;10.024;2022-09-19T06:03:37;6.93;;;3.30;;
24635;SDS011;12772;49.794;10.024;2022-09-19T06:07:40;7.60;;;3.35;;
24635;SDS011;12772;49.794;10.024;2022-09-19T06:11:42;6.28;;;3.55;;
24635;SDS011;12772;49.794;10.024;2022-09-19T06:15:44;5.95;;;3.13;;
24635;SDS011;12772;49.794;10.024;2022-09-19T06:19:47;5.53;;;3.00;;
24635;SDS011;12772;49.794;10.024;2022-09-19T06:23:49;7.90;;;3.50;;
24635;SDS011;12772;49.794;10.024;2022-09-19T06:28:00;8.27;;;3.35;;
24635;SDS011;12772;49.794;10.024;2022-09-19T06:32:05;9.23;;;4.25;;
24635;SDS011;12772;49.794;10.024;2022-09-19T06:36:08;6.25;;;3.65;;
24635;SDS011;12772;49.794;10.024;2022-09-19T06:40:11;7.07;;;3.13;;
24635;SDS011;12772;49.794;10.024;2022-09-19T06:44:14;7.20;;;3.42;;
24635;SDS011;12772;49.794;10.024;2022-09-19T06:48:17;8.35;;;3.33;;
24635;SDS011;12772;49.794;10.024;2022-09-19T06:52:20;7.97;;;3.95;;
24635;SDS011;12772;49.794;10.024;2022-09-19T06:56:22;5.50;;;3.30;;
24635;SDS011;12772;49.794;10.024;2022-09-19T07:00:24;5.57;;;3.33;;
24635;SDS011;12772;49.794;10.024;2022-09-19T07:04:28;8.32;;;3.65;;
24635;SDS011;12772;49.794;10.024;2022-09-19T07:08:30;8.55;;;3.55;;
24635;SDS011;12772;49.794;10.024;2022-09-19T07:12:32;7.60;;;3.80;;
24635;SDS011;12772;49.794;10.024;2022-09-19T07:16:34;8.18;;;4.13;;
24635;SDS011;12772;49.794;10.024;2022-09-19T07:20:37;7.38;;;3.47;;
24635;SDS011;12772;49.794;10.024;2022-09-19T07:24:39;4.88;;;3.10;;
24635;SDS011;12772;49.794;10.024;2022-09-19T07:28:41;5.47;;;2.90;;
24635;SDS011;12772;49.794;10.024;2022-09-19T07:32:43;5.80;;;2.75;;
24635;SDS011;12772;49.794;10.024;2022-09-19T07:36:45;6.82;;;2.75;;
24635;SDS011;12772;49.794;10.024;2022-09-19T07:40:47;6.45;;;2.78;;
24635;SDS011;12772;49.794;10.024;2022-09-19T07:44:49;6.22;;;3.05;;
24635;SDS011;12772;49.794;10.024;2022-09-19T07:48:51;5.95;;;2.88;;
24635;SDS011;12772;49.794;10.024;2022-09-19T07:53:13;6.13;;;2.92;;
24635;SDS011;12772;49.794;10.024;2022-09-19T07:57:18;7.57;;;3.00;;
24635;SDS011;12772;49.794;10.024;2022-09-19T08:01:20;7.90;;;3.15;;
24635;SDS011;12772;49.794;10.024;2022-09-19T08:05:22;4.93;;;2.60;;
24635;SDS011;12772;49.794;10.024;2022-09-19T08:09:25;7.28;;;3.05;;
24635;SDS011;12772;49.794;10.024;2022-09-19T08:13:27;6.80;;;2.75;;
24635;SDS011;12772;49.794;10.024;2022-09-19T08:17:30;10.05;;;3.22;;
24635;SDS011;12772;49.794;10.024;2022-09-19T08:21:32;6.85;;;3.00;;
24635;SDS011;12772;49.794;10.024;2022-09-19T08:25:35;5.60;;;2.47;;
24635;SDS011;12772;49.794;10.024;2022-09-19T08:29:39;3.53;;;2.60;;
24635;SDS011;12772;49.794;10.024;2022-09-19T08:33:41;5.82;;;2.60;;
24635;SDS011;12772;49.794;10.024;2022-09-19T08:37:44;4.00;;;3.03;;
24635;SDS011;12772;49.794;10.024;2022-09-19T08:41:51;5.53;;;2.75;;
24635;SDS011;12772;49.794;10.024;2022-09-19T08:50:17;6.80;;;2.65;;
24635;SDS011;12772;49.794;10.024;2022-09-19T08:54:32;5.82;;;2.75;;
24635;SDS011;12772;49.794;10.024;2022-09-19T08:58:44;4.50;;;2.53;;
24635;SDS011;12772;49.794;10.024;2022-09-19T09:03:03;4.15;;;2.78;;
24635;SDS011;12772;49.794;10.024;2022-09-19T09:11:34;2.42;;;1.98;;
24635;SDS011;12772;49.794;10.024;2022-09-19T09:20:30;5.47;;;2.45;;
24635;SDS011;12772;49.794;10.024;2022-09-19T09:24:41;4.47;;;2.47;;
24635;SDS011;12772;49.794;10.024;2022-09-19T09:28:53;5.28;;;2.42;;
24635;SDS011;12772;49.794;10.024;2022-09-19T09:33:22;6.07;;;2.95;;
24635;SDS011;12772;49.794;10.024;2022-09-19T09:37:30;5.47;;;2.28;;
24635;SDS011;12772;49.794;10.024;2022-09-19T09:41:46;4.70;;;2.20;;
24635;SDS011;12772;49.794;10.024;2022-09-19T09:45:52;3.72;;;1.98;;
24635;SDS011;12772;49.794;10.024;2022-09-19T09:50:00;2.33;;;2.08;;
24635;SDS011;12772;49.794;10.024;2022-09-19T10:03:52;4.40;;;2.75;;
24635;SDS011;12772;49.794;10.024;2022-09-19T10:08:13;3.88;;;2.50;;
24635;SDS011;12772;49.794;10.024;2022-09-19T10:16:23;3.80;;;2.20;;
24635;SDS011;12772;49.794;10.024;2022-09-19T10:20:32;4.40;;;2.28;;
24635;SDS011;12772;49.794;10.024;2022-09-19T10:24:39;4.85;;;2.42;;
24635;SDS011;12772;49.794;10.024;2022-09-19T10:28:48;5.38;;;2.20;;
24635;SDS011;12772;49.794;10.024;2022-09-19T10:32:53;3.30;;;2.22;;
24635;SDS011;12772;49.794;10.024;2022-09-19T10:36:55;3.78;;;2.55;;
24635;SDS011;12772;49.794;10.024;2022-09-19T10:41:03;6.88;;;2.63;;
24635;SDS011;12772;49.794;10.024;2022-09-19T10:45:16;2.30;;;1.80;;
24635;SDS011;12772;49.794;10.024;2022-09-19T10:49:45;3.55;;;2.17;;
24635;SDS011;12772;49.794;10.024;2022-09-19T10:53:52;4.57;;;2.60;;
24635;SDS011;12772;49.794;10.024;2022-09-19T10:57:58;2.88;;;2.55;;
24635;SDS011;12772;49.794;10.024;2022-09-19T11:02:12;4.45;;;2.83;;
24635;SDS011;12772;49.794;10.024;2022-09-19T11:06:20;5.10;;;2.35;;
24635;SDS011;12772;49.794;10.024;2022-09-19T11:14:38;4.55;;;1.98;;
24635;SDS011;12772;49.794;10.024;2022-09-19T11:18:54;3.05;;;2.25;;
24635;SDS011;12772;49.794;10.024;2022-09-19T11:23:14;6.10;;;2.20;;
24635;SDS011;12772;49.794;10.024;2022-09-19T11:45:40;3.85;;;2.88;;
24635;SDS011;12772;49.794;10.024;2022-09-19T11:49:57;2.45;;;2.20;;
24635;SDS011;12772;49.794;10.024;2022-09-19T11:54:46;2.90;;;2.63;;
24635;SDS011;12772;49.794;10.024;2022-09-19T12:07:37;2.47;;;2.03;;
24635;SDS011;12772;49.794;10.024;2022-09-19T12:12:07;2.35;;;1.83;;
24635;SDS011;12772;49.794;10.024;2022-09-19T12:16:23;3.67;;;2.03;;
24635;SDS011;12772;49.794;10.024;2022-09-19T12:20:58;4.25;;;2.22;;
24635;SDS011;12772;49.794;10.024;2022-09-19T12:25:12;4.57;;;2.47;;
24635;SDS011;12772;49.794;10.024;2022-09-19T12:29:38;4.18;;;2.10;;
24635;SDS011;12772;49.794;10.024;2022-09-19T12:33:52;2.53;;;2.28;;
24635;SDS011;12772;49.794;10.024;2022-09-19T12:38:00;3.35;;;2.17;;
24635;SDS011;12772;49.794;10.024;2022-09-19T12:42:34;2.17;;;1.98;;
24635;SDS011;12772;49.794;10.024;2022-09-19T12:47:02;4.75;;;2.13;;
24635;SDS011;12772;49.794;10.024;2022-09-19T12:51:09;2.33;;;2.13;;
24635;SDS011;12772;49.794;10.024;2022-09-19T12:55:16;4.38;;;2.33;;
24635;SDS011;12772;49.794;10.024;2022-09-19T12:59:23;3.38;;;2.75;;
24635;SDS011;12772;49.794;10.024;2022-09-19T13:03:28;5.90;;;2.63;;
24635;SDS011;12772;49.794;10.024;2022-09-19T13:07:46;3.50;;;2.60;;
24635;SDS011;12772;49.794;10.024;2022-09-19T13:11:56;3.95;;;3.33;;
24635;SDS011;12772;49.794;10.024;2022-09-19T13:16:07;3.30;;;2.70;;
24635;SDS011;12772;49.794;10.024;2022-09-19T13:20:15;4.35;;;3.28;;
24635;SDS011;12772;49.794;10.024;2022-09-19T13:28:44;5.43;;;3.50;;
24635;SDS011;12772;49.794;10.024;2022-09-19T13:32:48;4.88;;;3.10;;
24635;SDS011;12772;49.794;10.024;2022-09-19T13:37:01;6.90;;;3.40;;
24635;SDS011;12772;49.794;10.024;2022-09-19T13:41:25;4.38;;;3.13;;
24635;SDS011;12772;49.794;10.024;2022-09-19T13:45:50;7.05;;;3.15;;
24635;SDS011;12772;49.794;10.024;2022-09-19T13:50:05;3.38;;;2.95;;
24635;SDS011;12772;49.794;10.024;2022-09-19T14:02:58;6.70;;;3.95;;
24635;SDS011;12772;49.794;10.024;2022-09-19T14:07:05;5.68;;;2.95;;
24635;SDS011;12772;49.794;10.024;2022-09-19T14:11:08;6.28;;;3.38;;
24635;SDS011;12772;49.794;10.024;2022-09-19T14:23:48;27.00;;;14.63;;
24635;SDS011;12772;49.794;10.024;2022-09-19T14:32:41;13.75;;;9.38;;
24635;SDS011;12772;49.794;10.024;2022-09-19T14:46:20;3.53;;;2.45;;
24635;SDS011;12772;49.794;10.024;2022-09-19T14:50:32;2.63;;;1.50;;
24635;SDS011;12772;49.794;10.024;2022-09-19T14:54:41;3.00;;;1.75;;
24635;SDS011;12772;49.794;10.024;2022-09-19T14:58:50;2.13;;;1.90;;
24635;SDS011;12772;49.794;10.024;2022-09-19T15:02:54;4.00;;;1.90;;
24635;SDS011;12772;49.794;10.024;2022-09-19T15:06:57;2.17;;;1.60;;
24635;SDS011;12772;49.794;10.024;2022-09-19T15:10:59;4.00;;;1.70;;
24635;SDS011;12772;49.794;10.024;2022-09-19T15:15:03;1.80;;;1.70;;
24635;SDS011;12772;49.794;10.024;2022-09-19T15:19:07;2.13;;;1.60;;
24635;SDS011;12772;49.794;10.024;2022-09-19T15:23:10;4.53;;;2.70;;
24635;SDS011;12772;49.794;10.024;2022-09-19T15:27:13;3.30;;;2.17;;
24635;SDS011;12772;49.794;10.024;2022-09-19T16:24:52;2.00;;;1.90;;
24635;SDS011;12772;49.794;10.024;2022-09-19T16:49:59;1.95;;;1.40;;
24635;SDS011;12772;49.794;10.024;2022-09-19T16:54:01;4.28;;;1.50;;
24635;SDS011;12772;49.794;10.024;2022-09-19T16:58:12;5.05;;;1.77;;
24635;SDS011;12772;49.794;10.024;2022-09-19T17:02:26;3.00;;;1.65;;
24635;SDS011;12772;49.794;10.024;2022-09-19T17:06:30;4.15;;;1.75;;
24635;SDS011;12772;49.794;10.024;2022-09-19T17:10:32;2.15;;;1.27;;
24635;SDS011;12772;49.794;10.024;2022-09-19T17:14:35;2.38;;;1.88;;
24635;SDS011;12772;49.794;10.024;2022-09-19T17:18:37;2.28;;;1.75;;
24635;SDS011;12772;49.794;10.024;2022-09-19T17:22:40;8.18;;;2.17;;
24635;SDS011;12772;49.794;10.024;2022-09-19T17:26:42;1.95;;;1.73;;
24635;SDS011;12772;49.794;10.024;2022-09-19T17:30:46;2.53;;;1.30;;
24635;SDS011;12772;49.794;10.024;2022-09-19T17:34:49;3.97;;;1.60;;
24635;SDS011;12772;49.794;10.024;2022-09-19T17:38:51;3.22;;;1.52;;
24635;SDS011;12772;49.794;10.024;2022-09-19T17:42:54;2.97;;;1.40;;
24635;SDS011;12772;49.794;10.024;2022-09-19T17:46:59;1.80;;;1.33;;
24635;SDS011;12772;49.794;10.024;2022-09-19T17:51:08;1.92;;;1.55;;
24635;SDS011;12772;49.794;10.024;2022-09-19T17:55:14;2.38;;;1.52;;
24635;SDS011;12772;49.794;10.024;2022-09-19T17:59:16;1.40;;;1.20;;
24635;SDS011;12772;49.794;10.024;2022-09-19T18:03:20;1.20;;;1.10;;
24635;SDS011;12772;49.794;10.024;2022-09-19T18:07:22;1.88;;;1.40;;
24635;SDS011;12772;49.794;10.024;2022-09-19T18:11:24;1.38;;;1.27;;
24635;SDS011;12772;49.794;10.024;2022-09-19T18:15:29;2.35;;;1.30;;
24635;SDS011;12772;49.794;10.024;2022-09-19T18:19:32;1.48;;;1.35;;
24635;SDS011;12772;49.794;10.024;2022-09-19T18:23:35;1.70;;;1.40;;
24635;SDS011;12772;49.794;10.024;2022-09-19T18:27:38;2.33;;;1.40;;
24635;SDS011;12772;49.794;10.024;2022-09-19T18:31:40;2.10;;;1.30;;
24635;SDS011;12772;49.794;10.024;2022-09-19T18:35:43;2.80;;;1.55;;
24635;SDS011;12772;49.794;10.024;2022-09-19T18:39:45;2.00;;;1.40;;
24635;SDS011;12772;49.794;10.024;2022-09-19T18:43:47;1.98;;;1.67;;
24635;SDS011;12772;49.794;10.024;2022-09-19T18:47:49;2.03;;;1.67;;
24635;SDS011;12772;49.794;10.024;2022-09-19T18:51:51;3.40;;;1.40;;
24635;SDS011;12772;49.794;10.024;2022-09-19T18:55:54;1.55;;;1.40;;
24635;SDS011;12772;49.794;10.024;2022-09-19T18:59:57;3.00;;;1.27;;
24635;SDS011;12772;49.794;10.024;2022-09-19T19:03:59;3.22;;;1.65;;
24635;SDS011;12772;49.794;10.024;2022-09-19T19:08:01;3.53;;;1.23;;
24635;SDS011;12772;49.794;10.024;2022-09-19T19:12:03;1.67;;;1.40;;
24635;SDS011;12772;49.794;10.024;2022-09-19T19:16:10;3.42;;;1.42;;
24635;SDS011;12772;49.794;10.024;2022-09-19T19:20:15;4.20;;;1.40;;
24635;SDS011;12772;49.794;10.024;2022-09-19T19:24:18;1.67;;;1.33;;
24635;SDS011;12772;49.794;10.024;2022-09-19T19:28:23;1.25;;;1.15;;
24635;SDS011;12772;49.794;10.024;2022-09-19T19:32:25;2.63;;;1.83;;
24635;SDS011;12772;49.794;10.024;2022-09-19T19:36:27;1.90;;;1.40;;
24635;SDS011;12772;49.794;10.024;2022-09-19T19:40:29;2.10;;;1.35;;
24635;SDS011;12772;49.794;10.024;2022-09-19T19:44:31;2.40;;;1.33;;
24635;SDS011;12772;49.794;10.024;2022-09-19T19:48:34;4.88;;;1.60;;
24635;SDS011;12772;49.794;10.024;2022-09-19T19:52:36;3.15;;;1.70;;
24635;SDS011;12772;49.794;10.024;2022-09-19T19:56:38;1.67;;;1.58;;
24635;SDS011;12772;49.794;10.024;2022-09-19T20:00:41;2.33;;;1.52;;
24635;SDS011;12772;49.794;10.024;2022-09-19T20:04:43;2.72;;;1.65;;
24635;SDS011;12772;49.794;10.024;2022-09-19T20:08:45;2.42;;;1.70;;
24635;SDS011;12772;49.794;10.024;2022-09-19T20:12:47;1.95;;;1.40;;
24635;SDS011;12772;49.794;10.024;2022-09-19T20:16:49;2.47;;;1.73;;
24635;SDS011;12772;49.794;10.024;2022-09-19T20:20:51;3.28;;;1.52;;
24635;SDS011;12772;49.794;10.024;2022-09-19T20:24:54;4.55;;;2.10;;
24635;SDS011;12772;49.794;10.024;2022-09-19T20:28:57;4.13;;;1.77;;
24635;SDS011;12772;49.794;10.024;2022-09-19T20:33:00;2.80;;;1.90;;
24635;SDS011;12772;49.794;10.024;2022-09-19T20:37:02;4.20;;;1.77;;
24635;SDS011;12772;49.794;10.024;2022-09-19T20:41:05;3.15;;;1.63;;
24635;SDS011;12772;49.794;10.024;2022-09-19T20:45:08;2.45;;;1.80;;
24635;SDS011;12772;49.794;10.024;2022-09-19T20:49:10;2.75;;;2.05;;
24635;SDS011;12772;49.794;10.024;2022-09-19T20:53:12;4.35;;;1.83;;
24635;SDS011;12772;49.794;10.024;2022-09-19T20:57:14;3.30;;;1.60;;
24635;SDS011;12772;49.794;10.024;2022-09-19T21:01:16;2.90;;;1.55;;
24635;SDS011;12772;49.794;10.024;2022-09-19T21:05:19;6.18;;;2.38;;
24635;SDS011;12772;49.794;10.024;2022-09-19T21:09:21;2.42;;;1.73;;
24635;SDS011;12772;49.794;10.024;2022-09-19T21:13:25;6.45;;;1.80;;
24635;SDS011;12772;49.794;10.024;2022-09-19T21:17:31;2.47;;;1.80;;
24635;SDS011;12772;49.794;10.024;2022-09-19T21:21:33;2.65;;;1.40;;
24635;SDS011;12772;49.794;10.024;2022-09-19T21:25:35;2.80;;;1.90;;
24635;SDS011;12772;49.794;10.024;2022-09-19T21:29:37;1.90;;;1.80;;
24635;SDS011;12772;49.794;10.024;2022-09-19T21:33:39;2.95;;;1.60;;
24635;SDS011;12772;49.794;10.024;2022-09-19T21:37:41;3.10;;;1.95;;
24635;SDS011;12772;49.794;10.024;2022-09-19T21:41:43;2.05;;;1.52;;
24635;SDS011;12772;49.794;10.024;2022-09-19T21:45:45;1.83;;;1.52;;
24635;SDS011;12772;49.794;10.024;2022-09-19T21:49:47;2.05;;;1.38;;
24635;SDS011;12772;49.794;10.024;2022-09-19T21:53:51;3.15;;;1.63;;
24635;SDS011;12772;49.794;10.024;2022-09-19T21:57:54;3.10;;;1.70;;
24635;SDS011;12772;49.794;10.024;2022-09-19T22:01:56;2.17;;;1.58;;
24635;SDS011;12772;49.794;10.024;2022-09-19T22:05:58;3.97;;;1.88;;
24635;SDS011;12772;49.794;10.024;2022-09-19T22:10:02;3.67;;;1.70;;
24635;SDS011;12772;49.794;10.024;2022-09-19T22:14:04;1.85;;;1.58;;
24635;SDS011;12772;49.794;10.024;2022-09-19T22:18:06;4.93;;;1.95;;
24635;SDS011;12772;49.794;10.024;2022-09-19T22:22:09;2.40;;;1.83;;
24635;SDS011;12772;49.794;10.024;2022-09-19T22:26:12;3.10;;;1.75;;
24635;SDS011;12772;49.794;10.024;2022-09-19T22:30:19;2.28;;;1.70;;
24635;SDS011;12772;49.794;10.024;2022-09-19T22:34:21;3.25;;;1.70;;
24635;SDS011;12772;49.794;10.024;2022-09-19T22:38:23;2.85;;;1.70;;
24635;SDS011;12772;49.794;10.024;2022-09-19T22:42:25;4.20;;;1.80;;
24635;SDS011;12772;49.794;10.024;2022-09-19T22:46:28;1.88;;;1.70;;
24635;SDS011;12772;49.794;10.024;2022-09-19T22:50:31;3.42;;;2.05;;
24635;SDS011;12772;49.794;10.024;2022-09-19T22:54:33;2.55;;;1.73;;
24635;SDS011;12772;49.794;10.024;2022-09-19T22:58:35;2.83;;;1.50;;
24635;SDS011;12772;49.794;10.024;2022-09-19T23:02:38;2.38;;;1.38;;
24635;SDS011;12772;49.794;10.024;2022-09-19T23:06:41;2.00;;;1.50;;
24635;SDS011;12772;49.794;10.024;2022-09-19T23:10:43;3.28;;;1.67;;
24635;SDS011;12772;49.794;10.024;2022-09-19T23:14:45;3.38;;;1.73;;
24635;SDS011;12772;49.794;10.024;2022-09-19T23:18:50;3.47;;;1.52;;
24635;SDS011;12772;49.794;10.024;2022-09-19T23:22:54;2.95;;;1.58;;
24635;SDS011;12772;49.794;10.024;2022-09-19T23:26:57;1.75;;;1.58;;
24635;SDS011;12772;49.794;10.024;2022-09-19T23:31:04;3.25;;;1.65;;
24635;SDS011;12772;49.794;10.024;2022-09-19T23:35:06;2.72;;;1.40;;
24635;SDS011;12772;49.794;10.024;2022-09-19T23:39:10;2.92;;;1.98;;
24635;SDS011;12772;49.794;10.024;2022-09-19T23:43:12;2.67;;;1.90;;
24635;SDS011;12772;49.794;10.024;2022-09-19T23:47:15;3.42;;;1.73;;
24635;SDS011;12772;49.794;10.024;2022-09-19T23:51:17;2.22;;;1.75;;
24635;SDS011;12772;49.794;10.024;2022-09-19T23:55:22;1.77;;;1.67;;
24635;SDS011;12772;49.794;10.024;2022-09-19T23:59:24;3.97;;;1.52;;
